Time;durP1;ratioP1;P1;durP2;ratioP2;P2;SDS_P1;SDS_P2;PMS_P1;PMS_P2;Temp;Humidity;BMP_temperature;BMP_pressure;BME280_temperature;BME280_humidity;BME280_pressure;Samples;Min_cycle;Max_cycle;Signal;HPM_P1;HPM_P2
2021/12/11 00:00:56;;;;;;;16.58;6.95;;;;;;;;;;4975849;28;20057;-59
2021/12/11 00:03:25;;;;;;;17.15;7.65;;;;;;;;;;4971355;28;20030;-59
2021/12/11 00:05:53;;;;;;;18.02;7.55;;;;;;;;;;4977162;28;20084;-58
2021/12/11 00:08:21;;;;;;;13.93;7.63;;;;;;;;;;4973742;28;20076;-59
2021/12/11 00:10:51;;;;;;;16.48;8.10;;;;;;;;;;4975746;28;20117;-59
2021/12/11 00:13:20;;;;;;;21.48;7.85;;;;;;;;;;4967549;28;20031;-59
2021/12/11 00:15:49;;;;;;;18.75;7.82;;;;;;;;;;4972660;28;20056;-59
2021/12/11 00:18:20;;;;;;;18.13;8.52;;;;;;;;;;4968837;28;20046;-60
2021/12/11 00:20:51;;;;;;;19.92;7.68;;;;;;;;;;4956835;28;20037;-60
2021/12/11 00:23:49;;;;;;;18.58;7.80;;;;;;;;;;4984179;28;20089;-61
2021/12/11 00:26:23;;;;;;;13.65;6.85;;;;;;;;;;4957023;28;20100;-59
2021/12/11 00:28:50;;;;;;;15.57;6.93;;;;;;;;;;4964007;28;21324;-60
2021/12/11 00:31:16;;;;;;;18.52;7.78;;;;;;;;;;4990049;28;20036;-60
2021/12/11 00:33:45;;;;;;;17.55;7.38;;;;;;;;;;4972977;28;20068;-59
2021/12/11 00:36:15;;;;;;;15.27;7.55;;;;;;;;;;4974082;28;20088;-60
2021/12/11 00:38:41;;;;;;;19.15;8.95;;;;;;;;;;4977577;28;20045;-60
2021/12/11 00:41:11;;;;;;;21.67;9.25;;;;;;;;;;4977189;28;20134;-59
2021/12/11 00:43:41;;;;;;;22.02;8.95;;;;;;;;;;4954270;28;20034;-59
2021/12/11 00:46:10;;;;;;;17.35;7.55;;;;;;;;;;4973855;28;20064;-60
2021/12/11 00:48:37;;;;;;;14.48;6.72;;;;;;;;;;4972969;28;21090;-59
2021/12/11 00:51:08;;;;;;;14.63;6.35;;;;;;;;;;4972995;28;20049;-59
2021/12/11 00:53:35;;;;;;;17.60;7.30;;;;;;;;;;4973515;28;20097;-59
2021/12/11 00:56:07;;;;;;;12.40;6.63;;;;;;;;;;4970448;28;20136;-60
2021/12/11 00:58:36;;;;;;;21.10;8.65;;;;;;;;;;4975089;28;20068;-60
2021/12/11 01:01:14;;;;;;;17.58;7.90;;;;;;;;;;4973215;28;20138;-60
2021/12/11 01:03:42;;;;;;;15.30;7.80;;;;;;;;;;4972394;28;21967;-60
2021/12/11 01:06:13;;;;;;;17.10;7.95;;;;;;;;;;4972889;28;20626;-59
2021/12/11 01:08:40;;;;;;;18.95;7.25;;;;;;;;;;4979305;28;20473;-59
2021/12/11 01:11:19;;;;;;;16.38;7.18;;;;;;;;;;4960579;28;20022;-59
2021/12/11 01:14:05;;;;;;;16.45;6.85;;;;;;;;;;4974231;28;20038;-60
2021/12/11 01:16:33;;;;;;;24.05;8.48;;;;;;;;;;4968684;28;20037;-59
2021/12/11 01:19:00;;;;;;;13.77;8.50;;;;;;;;;;4966577;28;20036;-59
2021/12/11 01:26:39;;;;;;;23.33;9.75;;;;;;;;;;4970697;28;20030;-60
2021/12/11 01:29:11;;;;;;;22.83;9.45;;;;;;;;;;4975681;28;20418;-60
2021/12/11 01:31:39;;;;;;;20.30;9.30;;;;;;;;;;4971970;28;20022;-59
2021/12/11 01:34:07;;;;;;;19.15;8.90;;;;;;;;;;4961844;28;20752;-59
2021/12/11 01:36:35;;;;;;;22.90;10.25;;;;;;;;;;4954942;28;20078;-60
2021/12/11 01:39:05;;;;;;;22.30;8.85;;;;;;;;;;4968979;28;20624;-59
2021/12/11 01:41:33;;;;;;;18.15;8.75;;;;;;;;;;4978969;28;20064;-59
2021/12/11 01:44:04;;;;;;;22.13;9.90;;;;;;;;;;4971230;28;20137;-60
2021/12/11 01:46:30;;;;;;;18.95;7.80;;;;;;;;;;4971283;28;20042;-59
2021/12/11 01:48:58;;;;;;;17.27;8.55;;;;;;;;;;4952228;28;20037;-60
2021/12/11 01:51:30;;;;;;;18.42;9.57;;;;;;;;;;4967540;28;20532;-60
2021/12/11 01:54:03;;;;;;;22.52;9.45;;;;;;;;;;4972164;28;20134;-60
2021/12/11 01:56:32;;;;;;;15.18;7.93;;;;;;;;;;4970661;28;20045;-61
2021/12/11 01:58:59;;;;;;;20.00;8.70;;;;;;;;;;4971247;28;20037;-59
2021/12/11 02:01:29;;;;;;;18.73;7.97;;;;;;;;;;4962239;28;20046;-60
2021/12/11 02:03:57;;;;;;;27.38;8.40;;;;;;;;;;4973393;28;20112;-59
2021/12/11 02:06:27;;;;;;;22.30;8.98;;;;;;;;;;4971484;28;20029;-60
2021/12/11 02:08:53;;;;;;;26.60;9.65;;;;;;;;;;4970341;28;20902;-59
2021/12/11 02:11:24;;;;;;;21.67;9.15;;;;;;;;;;4972842;28;20046;-60
2021/12/11 02:13:54;;;;;;;22.88;9.70;;;;;;;;;;4971592;28;20219;-60
2021/12/11 02:16:24;;;;;;;17.45;8.77;;;;;;;;;;4975428;28;20030;-60
2021/12/11 02:18:59;;;;;;;19.33;9.07;;;;;;;;;;4975308;28;20520;-59
2021/12/11 02:21:32;;;;;;;22.70;9.55;;;;;;;;;;4969798;28;21581;-60
2021/12/11 02:24:03;;;;;;;16.55;8.98;;;;;;;;;;4972011;28;20048;-60
2021/12/11 02:26:36;;;;;;;19.50;8.30;;;;;;;;;;4976598;28;20678;-59
2021/12/11 02:29:10;;;;;;;20.83;9.32;;;;;;;;;;4974190;28;20529;-60
2021/12/11 02:31:47;;;;;;;25.25;9.02;;;;;;;;;;4975671;28;20037;-59
2021/12/11 02:34:17;;;;;;;21.77;9.73;;;;;;;;;;4975904;28;20033;-60
2021/12/11 02:37:11;;;;;;;20.63;9.30;;;;;;;;;;4988038;28;20046;-59
2021/12/11 02:39:39;;;;;;;26.60;9.93;;;;;;;;;;4969862;28;20076;-60
2021/12/11 02:42:21;;;;;;;19.42;9.57;;;;;;;;;;4978815;28;20053;-60
2021/12/11 02:45:09;;;;;;;27.50;11.32;;;;;;;;;;4973881;28;20050;-59
2021/12/11 02:47:47;;;;;;;24.33;10.63;;;;;;;;;;4967860;28;20069;-59
2021/12/11 02:50:16;;;;;;;23.52;10.20;;;;;;;;;;4975944;28;20048;-60
2021/12/11 02:52:58;;;;;;;21.38;10.20;;;;;;;;;;4972011;28;20113;-60
2021/12/11 02:55:42;;;;;;;21.25;9.23;;;;;;;;;;4975293;28;20045;-60
2021/12/11 02:58:30;;;;;;;23.60;10.00;;;;;;;;;;4972164;28;20053;-60
2021/12/11 03:01:00;;;;;;;17.65;8.70;;;;;;;;;;4963813;28;20041;-59
2021/12/11 03:03:32;;;;;;;23.65;9.27;;;;;;;;;;4975269;28;20042;-60
2021/12/11 03:06:09;;;;;;;20.42;9.85;;;;;;;;;;4973976;28;20469;-60
2021/12/11 03:08:37;;;;;;;;;;;;;;;;;;4972614;28;20046;-59
2021/12/11 03:11:08;;;;;;;17.35;7.45;;;;;;;;;;4972417;28;19968;-59
2021/12/11 03:13:38;;;;;;;;;;;;;;;;;;4988816;28;20029;-57
2021/12/11 03:16:04;;;;;;;16.67;8.05;;;;;;;;;;4974791;28;19914;-59
2021/12/11 03:18:32;;;;;;;20.08;10.80;;;;;;;;;;4970713;28;20485;-59
2021/12/11 03:21:00;;;;;;;20.45;8.77;;;;;;;;;;4985792;28;20038;-59
2021/12/11 03:23:30;;;;;;;22.00;10.07;;;;;;;;;;4978487;28;20697;-59
2021/12/11 03:25:58;;;;;;;23.67;9.38;;;;;;;;;;4979942;28;20038;-60
2021/12/11 03:28:28;;;;;;;19.80;9.00;;;;;;;;;;4959577;28;20046;-59
2021/12/11 03:30:59;;;;;;;23.77;10.80;;;;;;;;;;4987213;28;20058;-59
2021/12/11 03:33:29;;;;;;;24.63;9.98;;;;;;;;;;4974296;28;20034;-60
2021/12/11 03:36:01;;;;;;;24.55;9.10;;;;;;;;;;4972280;28;20056;-59
2021/12/11 03:38:29;;;;;;;23.08;9.48;;;;;;;;;;4972613;28;20480;-59
2021/12/11 03:40:58;;;;;;;24.08;9.75;;;;;;;;;;4973083;28;20034;-59
2021/12/11 03:43:28;;;;;;;32.65;10.00;;;;;;;;;;4973640;28;20030;-59
2021/12/11 03:49:32;;;;;;;25.60;11.77;;;;;;;;;;4974065;28;20596;-58
2021/12/11 03:51:58;;;;;;;25.13;10.48;;;;;;;;;;4970174;28;20053;-59
2021/12/11 03:54:27;;;;;;;25.95;12.40;;;;;;;;;;4954951;28;20088;-58
2021/12/11 03:56:55;;;;;;;32.08;12.25;;;;;;;;;;4974658;28;20132;-59
2021/12/11 03:59:27;;;;;;;23.48;8.57;;;;;;;;;;4974661;28;23143;-58
2021/12/11 04:01:56;;;;;;;;;;;;;;;;;;4989853;28;20021;-58
2021/12/11 04:04:27;;;;;;;18.65;9.25;;;;;;;;;;4977392;28;20303;-59
2021/12/11 04:06:55;;;;;;;17.75;9.38;;;;;;;;;;4990591;28;20026;-59
2021/12/11 04:09:20;;;;;;;24.52;10.32;;;;;;;;;;4974144;28;20489;-58
2021/12/11 04:11:48;;;;;;;26.48;9.60;;;;;;;;;;4976832;28;20037;-59
2021/12/11 04:14:15;;;;;;;23.75;10.60;;;;;;;;;;4972419;28;20034;-60
2021/12/11 04:16:46;;;;;;;19.45;10.38;;;;;;;;;;4974876;28;20026;-58
2021/12/11 04:19:12;;;;;;;21.70;9.85;;;;;;;;;;4968942;28;20134;-58
2021/12/11 04:21:38;;;;;;;16.90;8.73;;;;;;;;;;4975073;28;20048;-59
2021/12/11 04:24:07;;;;;;;25.58;11.13;;;;;;;;;;4975095;28;22162;-58
2021/12/11 04:26:33;;;;;;;20.23;8.18;;;;;;;;;;4972940;28;20030;-59
2021/12/11 04:29:01;;;;;;;21.98;9.20;;;;;;;;;;4978661;28;20041;-58
2021/12/11 04:31:30;;;;;;;14.70;8.63;;;;;;;;;;4973760;28;20052;-58
2021/12/11 04:34:02;;;;;;;23.45;10.40;;;;;;;;;;4987352;28;20493;-59
2021/12/11 04:36:30;;;;;;;24.85;9.90;;;;;;;;;;4972029;28;20120;-59
2021/12/11 04:38:56;;;;;;;18.08;9.38;;;;;;;;;;4974313;28;20606;-59
2021/12/11 04:41:30;;;;;;;19.25;9.00;;;;;;;;;;4971816;28;20517;-60
2021/12/11 04:43:59;;;;;;;18.05;9.00;;;;;;;;;;4972524;28;20029;-60
2021/12/11 04:46:27;;;;;;;19.40;8.77;;;;;;;;;;4972078;28;20052;-58
2021/12/11 04:49:03;;;;;;;17.52;8.65;;;;;;;;;;4976012;28;20184;-59
2021/12/11 04:51:58;;;;;;;21.63;9.10;;;;;;;;;;4973379;28;20034;-58
2021/12/11 04:54:55;;;;;;;21.20;9.93;;;;;;;;;;4974897;28;20116;-60
2021/12/11 05:00:30;;;;;;;19.30;8.43;;;;;;;;;;4961515;28;20050;-60
2021/12/11 05:11:01;;;;;;;17.45;9.45;;;;;;;;;;4977886;28;20092;-59
2021/12/11 05:13:27;;;;;;;20.63;9.48;;;;;;;;;;4971898;28;20092;-59
2021/12/11 05:16:03;;;;;;;25.50;8.90;;;;;;;;;;4974936;28;20057;-59
2021/12/11 05:18:32;;;;;;;16.33;7.65;;;;;;;;;;4968817;28;20034;-60
2021/12/11 05:21:00;;;;;;;13.93;7.57;;;;;;;;;;4988881;28;20117;-60
2021/12/11 05:23:29;;;;;;;24.95;9.77;;;;;;;;;;4972794;28;20060;-60
2021/12/11 05:25:55;;;;;;;20.27;10.38;;;;;;;;;;4973951;28;20485;-59
2021/12/11 05:28:23;;;;;;;22.83;9.95;;;;;;;;;;4971990;28;20034;-60
2021/12/11 05:30:55;;;;;;;20.98;9.55;;;;;;;;;;4973202;28;20120;-58
2021/12/11 05:33:25;;;;;;;20.60;8.18;;;;;;;;;;4969818;28;20102;-59
2021/12/11 05:35:50;;;;;;;20.67;9.60;;;;;;;;;;4979793;28;21095;-59
2021/12/11 05:38:19;;;;;;;20.95;7.93;;;;;;;;;;4971188;28;20049;-59
2021/12/11 05:40:47;;;;;;;22.90;9.15;;;;;;;;;;4968039;28;20161;-62
2021/12/11 05:43:12;;;;;;;20.88;9.00;;;;;;;;;;4974411;28;21088;-59
2021/12/11 05:45:38;;;;;;;20.85;8.55;;;;;;;;;;4972636;28;20030;-59
2021/12/11 05:48:07;;;;;;;16.25;9.07;;;;;;;;;;4972943;28;20096;-60
2021/12/11 05:50:37;;;;;;;18.33;9.43;;;;;;;;;;4984473;28;20022;-59
2021/12/11 05:53:03;;;;;;;20.30;9.30;;;;;;;;;;4973624;28;20034;-61
2021/12/11 05:55:32;;;;;;;20.35;10.27;;;;;;;;;;4975613;28;20061;-59
2021/12/11 05:58:02;;;;;;;23.35;10.00;;;;;;;;;;4973456;28;20049;-59
2021/12/11 06:00:32;;;;;;;25.67;9.65;;;;;;;;;;4972470;28;20053;-60
2021/12/11 06:02:59;;;;;;;21.15;9.93;;;;;;;;;;4970653;28;20084;-59
2021/12/11 06:05:25;;;;;;;22.58;10.40;;;;;;;;;;4978816;28;20539;-59
2021/12/11 06:07:53;;;;;;;23.27;10.52;;;;;;;;;;4977254;28;20041;-59
2021/12/11 06:10:22;;;;;;;28.20;11.50;;;;;;;;;;4978842;28;20034;-60
2021/12/11 06:12:51;;;;;;;25.83;11.38;;;;;;;;;;4979838;28;20093;-59
2021/12/11 06:15:16;;;;;;;21.38;9.77;;;;;;;;;;4958024;28;20062;-60
2021/12/11 06:17:43;;;;;;;19.75;10.00;;;;;;;;;;4989030;28;20042;-59
2021/12/11 06:20:11;;;;;;;26.33;10.32;;;;;;;;;;4976104;28;20038;-59
2021/12/11 06:22:39;;;;;;;27.13;10.25;;;;;;;;;;4976935;28;20028;-59
2021/12/11 06:25:10;;;;;;;24.55;10.23;;;;;;;;;;4989504;28;20455;-59
2021/12/11 06:27:36;;;;;;;26.27;9.43;;;;;;;;;;4974312;28;20033;-60
2021/12/11 06:30:07;;;;;;;20.02;8.90;;;;;;;;;;4992066;28;20034;-61
2021/12/11 06:32:38;;;;;;;20.17;8.90;;;;;;;;;;4974637;28;20030;-60
2021/12/11 06:35:16;;;;;;;26.58;10.43;;;;;;;;;;4974941;28;20120;-59
2021/12/11 06:37:42;;;;;;;21.08;9.18;;;;;;;;;;4957820;28;20121;-59
2021/12/11 06:40:13;;;;;;;20.27;9.35;;;;;;;;;;4973665;28;20077;-58
2021/12/11 06:42:41;;;;;;;27.55;10.35;;;;;;;;;;4973578;28;20038;-59
2021/12/11 06:45:06;;;;;;;23.23;10.00;;;;;;;;;;4974275;28;20157;-60
2021/12/11 06:47:32;;;;;;;23.73;10.73;;;;;;;;;;4975152;28;20041;-59
2021/12/11 06:50:06;;;;;;;20.65;8.90;;;;;;;;;;4978281;28;20034;-59
2021/12/11 06:52:34;;;;;;;22.15;10.18;;;;;;;;;;4991108;28;20044;-58
2021/12/11 06:55:03;;;;;;;27.02;10.63;;;;;;;;;;4977044;28;20034;-58
2021/12/11 06:57:29;;;;;;;19.83;10.15;;;;;;;;;;4978144;28;20117;-58
2021/12/11 06:59:54;;;;;;;19.95;11.30;;;;;;;;;;4977202;28;20030;-59
2021/12/11 07:02:20;;;;;;;26.02;11.57;;;;;;;;;;4978058;28;20037;-59
2021/12/11 07:04:47;;;;;;;26.90;12.52;;;;;;;;;;4978549;28;20041;-59
2021/12/11 07:07:19;;;;;;;28.77;11.07;;;;;;;;;;4974010;28;20038;-59
2021/12/11 07:09:45;;;;;;;24.42;9.25;;;;;;;;;;4978805;28;20038;-58
2021/12/11 07:12:12;;;;;;;27.83;11.00;;;;;;;;;;4972626;28;20030;-59
2021/12/11 07:14:38;;;;;;;22.30;11.43;;;;;;;;;;4974756;28;20476;-59
2021/12/11 07:17:04;;;;;;;27.42;9.18;;;;;;;;;;4975910;28;20145;-58
2021/12/11 07:19:31;;;;;;;30.15;10.68;;;;;;;;;;4975072;28;20035;-59
2021/12/11 07:21:59;;;;;;;22.75;10.77;;;;;;;;;;4970990;28;23246;-59
2021/12/11 07:24:37;;;;;;;20.17;9.57;;;;;;;;;;4973521;28;20320;-59
2021/12/11 07:27:06;;;;;;;29.38;9.95;;;;;;;;;;4971655;28;20027;-59
2021/12/11 07:29:35;;;;;;;30.92;9.77;;;;;;;;;;4974256;28;20544;-58
2021/12/11 07:32:02;;;;;;;22.67;10.13;;;;;;;;;;4971260;28;21271;-59
2021/12/11 07:34:28;;;;;;;21.52;11.50;;;;;;;;;;4972825;28;20034;-59
2021/12/11 07:36:55;;;;;;;25.08;10.82;;;;;;;;;;4971345;28;20501;-59
2021/12/11 07:39:24;;;;;;;19.80;8.85;;;;;;;;;;4973217;28;20041;-59
2021/12/11 07:41:55;;;;;;;24.48;11.93;;;;;;;;;;4975541;28;20033;-59
2021/12/11 07:44:22;;;;;;;29.50;13.15;;;;;;;;;;4974820;28;20034;-58
2021/12/11 07:46:47;;;;;;;23.15;10.90;;;;;;;;;;4976469;28;20022;-59
2021/12/11 07:49:14;;;;;;;22.73;10.48;;;;;;;;;;4957947;28;20129;-59
2021/12/11 07:51:39;;;;;;;21.42;10.25;;;;;;;;;;4977417;28;20053;-59
2021/12/11 07:54:05;;;;;;;31.95;12.32;;;;;;;;;;4972541;28;20137;-59
2021/12/11 07:56:33;;;;;;;25.90;10.60;;;;;;;;;;4959674;28;20060;-58
2021/12/11 07:59:00;;;;;;;24.73;10.65;;;;;;;;;;4976664;28;20043;-59
2021/12/11 08:01:33;;;;;;;25.92;12.10;;;;;;;;;;4975381;28;20084;-58
2021/12/11 08:04:03;;;;;;;28.45;13.20;;;;;;;;;;4975099;28;20026;-58
2021/12/11 08:06:32;;;;;;;23.63;10.38;;;;;;;;;;4975699;28;20121;-58
2021/12/11 08:08:58;;;;;;;25.55;12.27;;;;;;;;;;4977351;28;20026;-58
2021/12/11 08:15:02;;;;;;;23.60;10.90;;;;;;;;;;4977058;28;21248;-59
2021/12/11 08:17:30;;;;;;;30.13;12.75;;;;;;;;;;4974872;28;20293;-58
2021/12/11 08:19:55;;;;;;;21.90;10.88;;;;;;;;;;4977795;28;20033;-59
2021/12/11 08:22:24;;;;;;;24.75;10.43;;;;;;;;;;4977641;28;20970;-58
2021/12/11 08:24:51;;;;;;;24.00;11.52;;;;;;;;;;4975705;28;20202;-58
2021/12/11 08:27:21;;;;;;;25.73;11.75;;;;;;;;;;4976901;28;20030;-58
2021/12/11 08:29:47;;;;;;;23.77;10.93;;;;;;;;;;4976173;28;20130;-59
2021/12/11 08:32:13;;;;;;;24.27;10.57;;;;;;;;;;4978077;28;21146;-59
2021/12/11 08:34:39;;;;;;;20.88;11.40;;;;;;;;;;4977043;28;20588;-58
2021/12/11 08:37:07;;;;;;;22.98;11.40;;;;;;;;;;4978367;28;20053;-58
2021/12/11 08:39:38;;;;;;;28.33;10.52;;;;;;;;;;4977108;28;20041;-58
2021/12/11 08:42:09;;;;;;;22.95;11.07;;;;;;;;;;4978394;28;20478;-59
2021/12/11 08:44:48;;;;;;;25.77;10.63;;;;;;;;;;4977512;28;20042;-59
2021/12/11 08:47:20;;;;;;;21.67;10.68;;;;;;;;;;4975622;28;20458;-60
2021/12/11 08:49:46;;;;;;;27.15;11.13;;;;;;;;;;4978681;28;20049;-59
2021/12/11 08:52:14;;;;;;;26.20;10.35;;;;;;;;;;4991965;28;20061;-58
2021/12/11 08:54:44;;;;;;;26.27;11.57;;;;;;;;;;4977993;28;20045;-59
2021/12/11 08:57:11;;;;;;;25.83;10.98;;;;;;;;;;4978430;28;20044;-59
2021/12/11 08:59:41;;;;;;;29.20;12.30;;;;;;;;;;4975639;28;20677;-58
2021/12/11 09:02:20;;;;;;;26.85;10.45;;;;;;;;;;4976292;28;20739;-59
2021/12/11 09:04:45;;;;;;;21.80;11.25;;;;;;;;;;4976920;28;20072;-59
2021/12/11 09:07:14;;;;;;;24.83;11.20;;;;;;;;;;4976477;28;20018;-58
2021/12/11 09:09:45;;;;;;;24.73;11.13;;;;;;;;;;4978083;28;20885;-58
2021/12/11 09:12:20;;;;;;;28.02;11.55;;;;;;;;;;4977481;28;20045;-59
2021/12/11 09:14:53;;;;;;;29.38;12.27;;;;;;;;;;4975936;28;20607;-58
2021/12/11 09:17:31;;;;;;;23.65;10.82;;;;;;;;;;4976431;28;20048;-58
2021/12/11 09:20:17;;;;;;;22.95;10.65;;;;;;;;;;4963833;28;20493;-58
2021/12/11 09:22:52;;;;;;;28.85;12.98;;;;;;;;;;4967937;28;20815;-58
2021/12/11 09:25:27;;;;;;;25.70;11.82;;;;;;;;;;4977926;28;20041;-60
2021/12/11 09:28:03;;;;;;;26.13;11.32;;;;;;;;;;4976487;28;20038;-59
2021/12/11 09:30:32;;;;;;;24.95;12.38;;;;;;;;;;4977029;28;20825;-58
2021/12/11 09:33:06;;;;;;;24.38;11.48;;;;;;;;;;4973676;28;20469;-58
2021/12/11 09:35:37;;;;;;;30.65;12.27;;;;;;;;;;4977066;28;20388;-59
2021/12/11 09:38:05;;;;;;;27.52;12.07;;;;;;;;;;4980312;28;20070;-58
2021/12/11 09:40:42;;;;;;;24.88;12.18;;;;;;;;;;4988222;28;20537;-59
2021/12/11 09:43:25;;;;;;;24.55;11.40;;;;;;;;;;4981412;28;20449;-62
2021/12/11 09:45:53;;;;;;;30.38;11.45;;;;;;;;;;4980086;28;20498;-59
2021/12/11 09:48:21;;;;;;;26.95;13.40;;;;;;;;;;4982307;28;20197;-58
2021/12/11 09:50:56;;;;;;;31.58;12.13;;;;;;;;;;4980586;28;20038;-58
2021/12/11 09:53:28;;;;;;;23.55;12.02;;;;;;;;;;4982120;28;20030;-58
2021/12/11 09:55:58;;;;;;;29.15;13.15;;;;;;;;;;4982109;28;20037;-58
2021/12/11 09:58:27;;;;;;;24.90;12.32;;;;;;;;;;4980430;28;20046;-58
2021/12/11 10:01:03;;;;;;;30.17;12.00;;;;;;;;;;4986763;28;20030;-58
2021/12/11 10:03:34;;;;;;;21.77;11.05;;;;;;;;;;4979974;28;20520;-58
2021/12/11 10:06:12;;;;;;;35.08;12.55;;;;;;;;;;4978582;28;20033;-58
2021/12/11 10:08:41;;;;;;;30.42;12.45;;;;;;;;;;4980478;28;20038;-58
2021/12/11 10:11:10;;;;;;;37.38;12.93;;;;;;;;;;4979258;28;20030;-58
2021/12/11 10:13:38;;;;;;;23.77;11.75;;;;;;;;;;4987031;28;21024;-58
2021/12/11 10:16:24;;;;;;;31.85;12.60;;;;;;;;;;4980479;28;20503;-58
2021/12/11 10:18:52;;;;;;;22.85;11.98;;;;;;;;;;4978925;28;20077;-57
2021/12/11 10:21:23;;;;;;;26.52;11.82;;;;;;;;;;4978570;28;20183;-57
2021/12/11 10:23:53;;;;;;;23.25;11.60;;;;;;;;;;4993986;28;20041;-58
2021/12/11 10:26:19;;;;;;;36.78;14.15;;;;;;;;;;4977516;28;20116;-58
2021/12/11 10:28:48;;;;;;;30.75;12.40;;;;;;;;;;4982181;28;20049;-58
2021/12/11 10:31:17;;;;;;;32.10;15.02;;;;;;;;;;4979530;28;20613;-58
2021/12/11 10:33:47;;;;;;;37.70;13.98;;;;;;;;;;4980578;28;20048;-58
2021/12/11 10:36:17;;;;;;;38.70;14.55;;;;;;;;;;4978986;28;20569;-59
2021/12/11 10:38:45;;;;;;;27.45;13.57;;;;;;;;;;4979592;28;20054;-58
2021/12/11 10:41:13;;;;;;;32.92;13.50;;;;;;;;;;4983378;28;20160;-58
2021/12/11 10:43:46;;;;;;;30.00;12.75;;;;;;;;;;4983543;28;20104;-59
2021/12/11 10:46:16;;;;;;;31.70;12.52;;;;;;;;;;4993766;28;20039;-59
2021/12/11 10:48:44;;;;;;;30.08;11.48;;;;;;;;;;4978308;28;20134;-58
2021/12/11 10:51:12;;;;;;;32.22;13.95;;;;;;;;;;4978096;28;20099;-59
2021/12/11 10:53:46;;;;;;;28.92;12.98;;;;;;;;;;4979748;28;20037;-59
2021/12/11 10:56:15;;;;;;;27.75;12.20;;;;;;;;;;4978897;28;20037;-57
2021/12/11 10:58:44;;;;;;;34.13;14.25;;;;;;;;;;4976663;28;20026;-58
2021/12/11 11:01:21;;;;;;;25.83;11.90;;;;;;;;;;4979725;28;20053;-57
2021/12/11 11:03:54;;;;;;;35.35;13.13;;;;;;;;;;4975954;28;20025;-57
2021/12/11 11:06:22;;;;;;;31.42;14.23;;;;;;;;;;4979041;28;21984;-57
2021/12/11 11:08:50;;;;;;;27.10;11.75;;;;;;;;;;4979055;28;20034;-55
2021/12/11 11:11:21;;;;;;;25.10;12.15;;;;;;;;;;4980451;28;20129;-54
2021/12/11 11:13:50;;;;;;;28.02;12.73;;;;;;;;;;4995326;28;20089;-56
2021/12/11 11:16:16;;;;;;;24.08;11.93;;;;;;;;;;4979016;28;20030;-56
2021/12/11 11:18:41;;;;;;;27.67;10.65;;;;;;;;;;4978548;28;20088;-56
2021/12/11 11:21:11;;;;;;;21.45;10.40;;;;;;;;;;4982777;28;20031;-57
2021/12/11 11:23:41;;;;;;;24.83;9.43;;;;;;;;;;4978199;28;20394;-56
2021/12/11 11:26:12;;;;;;;22.58;10.50;;;;;;;;;;4979960;28;21700;-56
2021/12/11 11:28:38;;;;;;;21.35;10.25;;;;;;;;;;4978844;28;20125;-58
2021/12/11 11:31:08;;;;;;;21.95;9.95;;;;;;;;;;4977223;28;20069;-57
2021/12/11 11:33:37;;;;;;;18.77;9.57;;;;;;;;;;4977719;28;20038;-57
2021/12/11 11:36:09;;;;;;;19.15;9.45;;;;;;;;;;4985099;28;20037;-58
2021/12/11 11:38:41;;;;;;;21.40;9.90;;;;;;;;;;4976843;28;20042;-57
2021/12/11 11:41:09;;;;;;;22.38;9.73;;;;;;;;;;4979448;28;21024;-57
2021/12/11 11:43:40;;;;;;;18.85;9.32;;;;;;;;;;4978622;28;20026;-58
2021/12/11 11:46:08;;;;;;;20.50;10.25;;;;;;;;;;4976143;28;20069;-58
2021/12/11 11:48:37;;;;;;;18.80;9.18;;;;;;;;;;4977944;28;20535;-56
2021/12/11 11:51:08;;;;;;;19.35;9.75;;;;;;;;;;4978284;28;20109;-58
2021/12/11 11:53:35;;;;;;;18.98;9.80;;;;;;;;;;4977737;28;20142;-57
2021/12/11 11:56:05;;;;;;;19.15;10.40;;;;;;;;;;4985851;28;20459;-58
2021/12/11 11:58:34;;;;;;;20.13;10.95;;;;;;;;;;4978920;28;20053;-58
2021/12/11 12:01:06;;;;;;;19.73;9.90;;;;;;;;;;4975752;28;22231;-56
2021/12/11 12:03:31;;;;;;;18.25;9.68;;;;;;;;;;4977110;28;20077;-58
2021/12/11 12:06:01;;;;;;;20.25;10.25;;;;;;;;;;4965353;28;20204;-58
2021/12/11 12:08:27;;;;;;;18.33;9.45;;;;;;;;;;4973329;28;20035;-58
2021/12/11 12:10:56;;;;;;;16.10;9.57;;;;;;;;;;4974996;28;20037;-59
2021/12/11 12:13:26;;;;;;;18.27;9.63;;;;;;;;;;4977989;28;20029;-59
2021/12/11 12:15:53;;;;;;;17.98;9.77;;;;;;;;;;4977966;28;20034;-58
2021/12/11 12:18:25;;;;;;;19.98;9.45;;;;;;;;;;4975496;28;20026;-58
2021/12/11 12:20:51;;;;;;;21.92;9.25;;;;;;;;;;4980914;28;20041;-57
2021/12/11 12:23:20;;;;;;;20.58;10.90;;;;;;;;;;4977031;28;20029;-58
2021/12/11 12:25:49;;;;;;;19.50;9.90;;;;;;;;;;4972050;28;20030;-58
2021/12/11 12:28:15;;;;;;;21.75;8.98;;;;;;;;;;4973029;28;20088;-58
2021/12/11 12:30:46;;;;;;;21.60;10.18;;;;;;;;;;4958490;28;20062;-58
2021/12/11 12:33:12;;;;;;;17.45;9.85;;;;;;;;;;4974461;28;20039;-59
2021/12/11 12:35:40;;;;;;;22.70;10.15;;;;;;;;;;4977792;28;20030;-59
2021/12/11 12:38:10;;;;;;;20.15;9.77;;;;;;;;;;4975154;28;20132;-57
2021/12/11 12:40:48;;;;;;;18.65;9.30;;;;;;;;;;4975988;28;20137;-58
2021/12/11 12:43:42;;;;;;;18.48;9.57;;;;;;;;;;4988697;28;20026;-58
2021/12/11 12:46:05;;;;;;;20.70;9.73;;;;;;;;;;4974327;28;20761;-59
2021/12/11 12:48:32;;;;;;;18.05;9.75;;;;;;;;;;4974393;28;20034;-59
2021/12/11 12:51:04;;;;;;;22.05;10.57;;;;;;;;;;4973275;28;22632;-58
2021/12/11 12:53:33;;;;;;;18.00;9.68;;;;;;;;;;4979589;28;20030;-59
2021/12/11 12:56:02;;;;;;;19.50;10.48;;;;;;;;;;4980116;28;20054;-58
2021/12/11 12:58:33;;;;;;;22.42;10.25;;;;;;;;;;4974073;28;20653;-58
2021/12/11 13:01:03;;;;;;;20.13;9.65;;;;;;;;;;4976175;28;20042;-59
2021/12/11 13:03:33;;;;;;;20.83;11.05;;;;;;;;;;4974306;28;20061;-58
2021/12/11 13:06:01;;;;;;;22.88;10.30;;;;;;;;;;4977336;28;20456;-59
2021/12/11 13:08:36;;;;;;;22.45;10.55;;;;;;;;;;4976193;28;20034;-59
2021/12/11 13:11:08;;;;;;;24.77;9.38;;;;;;;;;;4977823;28;20065;-61
2021/12/11 13:13:37;;;;;;;25.42;11.52;;;;;;;;;;4975090;28;20831;-61
2021/12/11 13:16:06;;;;;;;20.58;10.18;;;;;;;;;;4976117;28;20052;-61
2021/12/11 13:18:35;;;;;;;18.17;9.77;;;;;;;;;;4977176;28;20129;-59
2021/12/11 13:21:08;;;;;;;19.15;9.68;;;;;;;;;;4977541;28;22034;-59
2021/12/11 13:23:38;;;;;;;21.67;9.85;;;;;;;;;;4977241;28;20034;-61
2021/12/11 13:26:05;;;;;;;22.85;9.18;;;;;;;;;;4976409;28;20030;-61
2021/12/11 13:28:37;;;;;;;23.95;11.10;;;;;;;;;;4989811;28;20553;-60
2021/12/11 13:31:14;;;;;;;27.08;10.68;;;;;;;;;;4974523;28;20025;-60
2021/12/11 13:33:42;;;;;;;22.42;11.35;;;;;;;;;;4980821;28;20984;-59
2021/12/11 13:36:11;;;;;;;22.08;10.88;;;;;;;;;;4959092;28;20032;-59
2021/12/11 13:38:41;;;;;;;22.75;11.10;;;;;;;;;;4973767;28;20046;-60
2021/12/11 13:41:12;;;;;;;24.77;10.52;;;;;;;;;;4975956;28;20029;-61
2021/12/11 13:43:42;;;;;;;25.23;10.95;;;;;;;;;;4974085;28;20144;-61
2021/12/11 13:46:10;;;;;;;27.33;11.38;;;;;;;;;;4973989;28;20609;-60
2021/12/11 13:48:37;;;;;;;26.75;11.35;;;;;;;;;;4970468;28;20038;-61
2021/12/11 13:51:11;;;;;;;26.10;11.35;;;;;;;;;;4987289;28;20045;-59
2021/12/11 13:53:38;;;;;;;21.70;10.37;;;;;;;;;;4973272;28;20061;-59
2021/12/11 13:56:06;;;;;;;27.88;11.23;;;;;;;;;;4993808;28;20026;-59
2021/12/11 13:58:32;;;;;;;24.75;10.80;;;;;;;;;;4982248;28;20030;-59
2021/12/11 14:01:02;;;;;;;21.27;10.02;;;;;;;;;;4974946;28;20030;-60
2021/12/11 14:03:31;;;;;;;28.42;10.70;;;;;;;;;;4972095;28;20057;-61
2021/12/11 14:05:58;;;;;;;21.83;11.38;;;;;;;;;;4979397;28;20129;-59
2021/12/11 14:08:25;;;;;;;31.33;11.20;;;;;;;;;;4973137;28;20038;-60
2021/12/11 14:10:51;;;;;;;19.48;10.27;;;;;;;;;;4971183;28;20131;-59
2021/12/11 14:13:19;;;;;;;29.05;10.45;;;;;;;;;;4973836;28;20058;-60
2021/12/11 14:15:46;;;;;;;25.27;11.52;;;;;;;;;;4974742;28;20048;-60
2021/12/11 14:18:16;;;;;;;24.60;11.98;;;;;;;;;;4980321;28;20482;-60
2021/12/11 14:20:44;;;;;;;23.98;10.15;;;;;;;;;;4982960;28;20038;-61
2021/12/11 14:23:13;;;;;;;22.85;10.98;;;;;;;;;;4975355;28;20030;-60
2021/12/11 14:25:39;;;;;;;26.55;12.00;;;;;;;;;;4978488;28;20041;-58
2021/12/11 14:28:09;;;;;;;23.88;10.93;;;;;;;;;;4980907;28;20061;-60
2021/12/11 14:30:35;;;;;;;23.75;12.38;;;;;;;;;;4982552;28;20030;-59
2021/12/11 14:33:02;;;;;;;28.52;13.25;;;;;;;;;;4974380;28;20035;-59
2021/12/11 14:35:30;;;;;;;27.58;13.43;;;;;;;;;;4961533;28;20038;-61
2021/12/11 14:37:58;;;;;;;24.08;12.52;;;;;;;;;;4974962;28;20046;-60
2021/12/11 14:40:25;;;;;;;30.10;13.55;;;;;;;;;;4978281;28;20045;-60
2021/12/11 14:42:53;;;;;;;26.75;11.10;;;;;;;;;;4979353;28;20111;-59
2021/12/11 14:45:27;;;;;;;26.35;11.27;;;;;;;;;;4978184;28;20102;-59
2021/12/11 14:48:00;;;;;;;24.38;11.13;;;;;;;;;;4979907;28;20089;-60
2021/12/11 14:50:29;;;;;;;27.30;12.60;;;;;;;;;;4977731;28;20038;-60
2021/12/11 14:52:54;;;;;;;27.40;12.02;;;;;;;;;;4984199;28;20034;-59
2021/12/11 14:55:31;;;;;;;37.42;13.07;;;;;;;;;;4979124;28;20030;-60
2021/12/11 14:57:59;;;;;;;28.27;11.73;;;;;;;;;;4975931;28;20087;-59
2021/12/11 15:00:28;;;;;;;28.25;11.38;;;;;;;;;;4975621;28;20084;-60
2021/12/11 15:02:56;;;;;;;31.90;12.43;;;;;;;;;;4976519;28;20092;-60